Time;durP1;ratioP1;P1;durP2;ratioP2;P2;SDS_P1;SDS_P2;PMS_P1;PMS_P2;Temp;Humidity;BMP_temperature;BMP_pressure;BME280_temperature;BME280_humidity;BME280_pressure;Samples;Min_cycle;Max_cycle;Signal;HPM_P1;HPM_P2
2022/03/21 00:00:59;;;;;;;92.25;44.65;;;;;;;3.19;79.48;102834.34;5071200;28;20045;-42
2022/03/21 00:03:26;;;;;;;84.03;45.63;;;;;;;3.13;79.55;102839.97;5071223;28;20540;-42
2022/03/21 00:05:52;;;;;;;90.63;45.13;;;;;;;3.06;79.59;102838.63;5071184;28;20070;-42
2022/03/21 00:08:18;;;;;;;84.68;44.75;;;;;;;3.04;80.25;102841.34;5070589;28;20535;-41
2022/03/21 00:10:44;;;;;;;88.88;46.13;;;;;;;3.09;79.98;102841.13;5071048;28;20020;-42
2022/03/21 00:13:14;;;;;;;83.65;45.63;;;;;;;3.08;79.94;102842.03;5071342;28;20225;-41
2022/03/21 00:15:40;;;;;;;88.22;46.10;;;;;;;3.02;79.82;102837.91;5070992;28;20044;-41
2022/03/21 00:18:06;;;;;;;91.90;45.90;;;;;;;2.96;79.92;102845.38;5071199;28;20025;-41
2022/03/21 00:20:32;;;;;;;89.20;47.33;;;;;;;2.93;80.79;102854.38;5069491;28;20467;-40
2022/03/21 00:22:57;;;;;;;95.20;47.03;;;;;;;2.91;80.18;102847.44;5071212;28;20029;-42
2022/03/21 00:25:23;;;;;;;96.70;49.20;;;;;;;2.86;81.19;102856.50;5070373;28;20048;-42
2022/03/21 00:27:49;;;;;;;83.97;45.97;;;;;;;2.85;80.81;102848.63;5070827;28;20059;-41
2022/03/21 00:30:15;;;;;;;87.72;45.63;;;;;;;2.82;81.14;102848.78;5070670;28;20032;-41
2022/03/21 00:32:41;;;;;;;92.50;47.00;;;;;;;2.76;81.11;102849.09;5071078;28;20459;-41
2022/03/21 00:35:08;;;;;;;88.72;44.92;;;;;;;2.74;81.12;102851.84;5070595;28;20040;-41
2022/03/21 00:37:38;;;;;;;94.25;47.88;;;;;;;2.69;81.01;102848.59;5070547;28;20025;-42
2022/03/21 00:40:06;;;;;;;88.78;46.45;;;;;;;2.65;80.88;102849.69;5069352;28;20431;-41
2022/03/21 00:42:34;;;;;;;91.88;48.15;;;;;;;2.62;81.75;102849.84;5070185;28;20111;-41
2022/03/21 00:45:00;;;;;;;100.15;48.05;;;;;;;2.60;81.99;102852.56;5070286;28;20457;-41
2022/03/21 00:47:25;;;;;;;97.72;47.33;;;;;;;2.59;82.53;102850.00;5070227;28;20074;-40
2022/03/21 00:49:52;;;;;;;89.47;45.80;;;;;;;2.59;81.86;102852.66;5069921;28;20024;-42
2022/03/21 00:52:18;;;;;;;91.22;47.58;;;;;;;2.59;82.14;102850.00;5070358;28;20039;-41
2022/03/21 00:54:43;;;;;;;92.30;46.88;;;;;;;2.53;81.81;102855.66;5070544;28;20364;-41
2022/03/21 00:57:09;;;;;;;97.85;48.97;;;;;;;2.47;82.42;102850.63;5069871;28;20085;-41
2022/03/21 00:59:34;;;;;;;95.47;47.28;;;;;;;2.46;81.86;102849.78;5070203;28;20074;-41
2022/03/21 01:01:59;;;;;;;87.90;47.70;;;;;;;2.45;81.89;102857.81;5070507;28;20146;-41
2022/03/21 01:04:25;;;;;;;93.60;47.70;;;;;;;2.40;82.15;102864.25;5069899;28;20099;-41
2022/03/21 01:06:50;;;;;;;97.03;49.88;;;;;;;2.38;83.00;102867.94;5069955;28;20112;-41
2022/03/21 01:09:17;;;;;;;93.15;46.53;;;;;;;2.33;82.64;102862.84;5069764;28;20040;-43
2022/03/21 01:11:43;;;;;;;91.55;47.53;;;;;;;2.33;82.78;102859.31;5070143;28;20033;-41
2022/03/21 01:14:10;;;;;;;95.22;48.83;;;;;;;2.30;82.52;102863.00;5069986;28;20024;-42
2022/03/21 01:16:35;;;;;;;93.50;47.88;;;;;;;2.28;83.34;102856.91;5069866;28;20025;-42
2022/03/21 01:19:00;;;;;;;101.40;49.38;;;;;;;2.25;83.23;102862.38;5069459;28;20020;-41
2022/03/21 01:21:26;;;;;;;93.22;49.20;;;;;;;2.26;83.51;102863.22;5070224;28;20085;-41
2022/03/21 01:23:51;;;;;;;92.43;49.60;;;;;;;2.20;83.27;102875.03;5068839;28;20031;-42
2022/03/21 01:26:16;;;;;;;95.63;46.83;;;;;;;2.20;83.08;102865.25;5069965;28;20067;-42
2022/03/21 01:28:42;;;;;;;98.78;48.08;;;;;;;2.12;83.29;102867.44;5069208;28;20129;-41
2022/03/21 01:31:08;;;;;;;96.32;50.85;;;;;;;2.05;82.98;102865.16;5068654;28;20036;-42
2022/03/21 01:33:35;;;;;;;101.53;49.83;;;;;;;2.02;83.02;102875.97;5070329;28;20108;-42
2022/03/21 01:36:01;;;;;;;91.68;47.67;;;;;;;2.01;83.68;102874.25;5069762;28;20036;-42
2022/03/21 01:38:26;;;;;;;91.18;47.08;;;;;;;1.95;83.58;102870.97;5069416;28;20028;-41
2022/03/21 01:40:51;;;;;;;104.57;48.25;;;;;;;1.91;83.33;102880.00;5070286;28;20153;-41
2022/03/21 01:43:17;;;;;;;99.68;51.13;;;;;;;1.87;83.18;102873.13;5070024;28;20076;-41
2022/03/21 01:45:42;;;;;;;100.20;49.53;;;;;;;1.85;83.82;102875.00;5069772;28;20025;-41
2022/03/21 01:48:07;;;;;;;92.38;48.22;;;;;;;1.87;83.99;102873.13;5070046;28;20044;-42
2022/03/21 01:50:33;;;;;;;98.22;49.17;;;;;;;1.85;83.95;102869.69;5068614;28;20028;-43
2022/03/21 01:55:45;;;;;;;95.20;48.05;;;;;;;1.86;84.30;102873.19;5070101;28;20382;-41
2022/03/21 01:58:13;;;;;;;;;;;;;;;1.85;84.61;102874.16;5068744;28;20028;-40
2022/03/21 02:00:41;;;;;;;92.25;46.75;;;;;;;1.85;84.16;102872.34;5070031;28;19913;-40
2022/03/21 02:03:06;;;;;;;91.78;47.55;;;;;;;1.87;84.60;102873.13;5068241;28;20387;-40
2022/03/21 02:05:34;;;;;;;99.03;48.60;;;;;;;1.88;84.45;102874.84;5069353;28;20040;-40
2022/03/21 02:08:00;;;;;;;96.43;48.78;;;;;;;1.87;83.90;102877.56;5069459;28;20499;-41
2022/03/21 02:10:26;;;;;;;99.80;49.88;;;;;;;1.87;84.45;102880.22;5070155;28;20020;-41
2022/03/21 02:12:51;;;;;;;91.65;47.70;;;;;;;1.85;84.25;102882.97;5068261;28;20044;-41
2022/03/21 02:15:17;;;;;;;94.32;47.92;;;;;;;1.86;83.95;102881.16;5051310;28;20056;-41
2022/03/21 02:17:46;;;;;;;98.00;48.72;;;;;;;1.77;83.62;102882.47;5068091;28;20043;-41
2022/03/21 02:20:12;;;;;;;104.40;49.50;;;;;;;1.75;84.15;102884.34;5069812;28;20056;-40
2022/03/21 02:22:58;;;;;;;94.15;47.97;;;;;;;1.75;84.73;102876.38;5068873;28;20090;-41
2022/03/21 02:25:32;;;;;;;99.65;50.25;;;;;;;1.72;84.17;102880.03;5069456;28;20033;-41
2022/03/21 02:28:00;;;;;;;102.68;49.97;;;;;;;1.73;84.81;102880.91;5069826;28;20071;-42
2022/03/21 02:30:27;;;;;;;;;;;;;;;1.70;84.94;102881.91;5072436;28;20039;-41
2022/03/21 02:32:52;;;;;;;92.72;48.65;;;;;;;1.69;84.31;102880.19;5073356;28;19908;-42
2022/03/21 02:35:18;;;;;;;96.90;49.17;;;;;;;1.66;84.67;102882.13;5072882;28;20052;-40
2022/03/21 02:37:46;;;;;;;98.78;49.22;;;;;;;1.63;84.64;102879.63;5072093;28;20028;-41
2022/03/21 02:40:11;;;;;;;96.93;47.70;;;;;;;1.61;84.65;102887.66;5072305;28;20082;-41
2022/03/21 02:42:37;;;;;;;103.57;50.08;;;;;;;1.62;85.05;102888.53;5073253;28;20275;-41
2022/03/21 02:45:03;;;;;;;106.03;50.75;;;;;;;1.63;85.41;102885.78;5070989;28;20419;-41
2022/03/21 02:47:28;;;;;;;101.30;50.03;;;;;;;1.67;85.30;102881.19;5073089;28;20115;-41
2022/03/21 02:49:54;;;;;;;101.18;51.15;;;;;;;1.67;85.28;102890.03;5072619;28;20103;-41
2022/03/21 02:52:20;;;;;;;96.43;47.72;;;;;;;1.69;85.35;102880.19;5072851;28;20029;-41
2022/03/21 02:54:45;;;;;;;100.35;49.30;;;;;;;1.69;84.79;102882.00;5072520;28;20037;-41
2022/03/21 02:57:11;;;;;;;98.25;47.72;;;;;;;1.68;85.40;102883.75;5071398;28;20024;-41
2022/03/21 02:59:36;;;;;;;100.20;49.60;;;;;;;1.72;84.80;102889.81;5072384;28;20509;-40
2022/03/21 03:02:02;;;;;;;98.32;48.58;;;;;;;1.66;85.07;102874.16;5072884;28;20021;-40
2022/03/21 03:04:27;;;;;;;95.18;49.42;;;;;;;1.66;84.69;102876.81;5072707;28;20033;-42
2022/03/21 03:06:53;;;;;;;97.38;48.92;;;;;;;1.65;85.10;102888.38;5093844;22;20051;-80
2022/03/21 03:09:19;;;;;;;96.07;48.88;;;;;;;1.65;85.19;102877.75;4973170;28;20027;-81
2022/03/21 03:11:44;;;;;;;94.50;48.38;;;;;;;1.67;85.01;102886.50;4973294;28;20084;-82
2022/03/21 03:14:10;;;;;;;106.07;50.22;;;;;;;1.68;85.09;102890.88;4952875;28;20061;-81
2022/03/21 03:16:36;;;;;;;96.25;50.40;;;;;;;1.63;84.93;102890.22;4951799;28;20141;-79
2022/03/21 03:19:01;;;;;;;96.63;49.42;;;;;;;1.60;84.86;102896.53;4953315;28;20034;-78
2022/03/21 03:21:30;;;;;;;99.93;48.38;;;;;;;1.52;84.89;102883.63;4953859;28;20027;-79
2022/03/21 03:23:55;;;;;;;;;;;;;;;1.51;85.22;102883.72;4954344;28;20045;-79
2022/03/21 03:26:20;;;;;;;98.40;47.95;;;;;;;1.50;85.15;102888.19;4972784;28;20065;-81
2022/03/21 03:28:45;;;;;;;96.00;48.10;;;;;;;1.49;85.31;102888.25;4971973;28;20099;-81
2022/03/21 03:31:14;;;;;;;101.75;48.95;;;;;;;1.44;85.24;102885.81;4972038;28;20171;-81
2022/03/21 03:33:39;;;;;;;107.75;50.75;;;;;;;1.46;85.69;102886.59;4971827;28;20483;-81
2022/03/21 03:36:05;;;;;;;97.78;49.03;;;;;;;1.46;85.71;102883.09;4972177;28;20077;-81
2022/03/21 03:38:30;;;;;;;94.88;49.00;;;;;;;1.46;85.82;102899.88;4973913;28;20026;-81
2022/03/21 03:40:56;;;;;;;98.03;49.15;;;;;;;1.45;85.68;102892.84;4971314;28;20448;-81
2022/03/21 03:43:21;;;;;;;105.18;50.95;;;;;;;1.46;86.08;102894.56;4971754;28;20064;-81
2022/03/21 03:45:49;;;;;;;105.80;49.65;;;;;;;1.45;85.61;102892.84;4971588;28;20026;-80
2022/03/21 03:48:15;;;;;;;97.40;48.35;;;;;;;1.40;85.52;102888.69;4971682;28;20026;-80
2022/03/21 03:50:41;;;;;;;97.65;49.08;;;;;;;1.37;85.53;102896.78;4971827;28;20062;-80
2022/03/21 03:53:07;;;;;;;96.07;46.83;;;;;;;1.28;85.28;102898.06;4971693;28;20027;-81
2022/03/21 03:55:32;;;;;;;98.60;47.08;;;;;;;1.22;85.13;102901.88;4971589;28;20084;-83
2022/03/21 03:57:57;;;;;;;98.68;49.13;;;;;;;1.20;85.90;102897.56;4976594;28;20066;-79
2022/03/21 04:00:23;;;;;;;92.53;47.70;;;;;;;1.20;86.31;102902.88;4979473;28;20083;-78
2022/03/21 04:05:32;;;;;;;99.20;49.05;;;;;;;1.20;85.86;102913.47;4982886;28;20038;-80
2022/03/21 04:07:57;;;;;;;97.93;50.33;;;;;;;1.21;86.11;102915.19;4959369;28;20051;-80
2022/03/21 04:10:23;;;;;;;95.85;47.95;;;;;;;1.22;85.75;102904.53;4953788;29;20032;-81
2022/03/21 04:12:49;;;;;;;100.82;48.63;;;;;;;1.20;85.69;102916.13;4954457;29;20056;-81
2022/03/21 04:15:18;;;;;;;98.35;48.58;;;;;;;1.20;86.24;102901.06;4954043;28;20421;-82
2022/03/21 04:17:44;;;;;;;101.53;47.90;;;;;;;1.18;86.28;102910.88;4952835;29;20077;-83
2022/03/21 04:20:10;;;;;;;95.35;46.78;;;;;;;1.16;86.31;102911.88;4954012;29;20027;-80
2022/03/21 04:22:37;;;;;;;97.07;48.15;;;;;;;1.14;86.34;102908.47;4952997;28;20047;-82
2022/03/21 04:25:07;;;;;;;101.63;49.83;;;;;;;1.12;86.10;102911.19;4952600;28;20035;-81
2022/03/21 04:27:33;;;;;;;94.35;46.53;;;;;;;1.11;86.50;102914.78;4952093;28;20031;-81
2022/03/21 04:30:00;;;;;;;108.68;51.40;;;;;;;1.09;86.92;102912.16;4951709;29;20110;-81
2022/03/21 04:32:25;;;;;;;94.68;47.38;;;;;;;1.08;86.47;102910.47;4951732;29;20032;-79
2022/03/21 04:34:50;;;;;;;98.50;47.80;;;;;;;1.13;86.14;102912.03;4953675;28;20027;-80
2022/03/21 04:37:16;;;;;;;100.50;48.42;;;;;;;1.20;86.36;102913.47;4956694;28;20249;-81
2022/03/21 04:39:41;;;;;;;99.43;47.22;;;;;;;1.20;86.60;102913.47;4960490;29;20059;-82
2022/03/21 04:42:07;;;;;;;96.95;47.58;;;;;;;1.20;86.17;102916.13;4959232;29;20058;-81
2022/03/21 04:44:32;;;;;;;91.68;45.20;;;;;;;1.18;86.22;102917.97;4961645;29;20039;-79
2022/03/21 04:46:57;;;;;;;97.45;47.40;;;;;;;1.17;86.40;102924.22;4960129;29;20123;-80
2022/03/21 04:49:23;;;;;;;95.43;46.65;;;;;;;1.14;86.98;102927.03;4964146;28;20039;-80
2022/03/21 04:51:48;;;;;;;100.50;47.83;;;;;;;1.16;86.81;102933.09;4964098;28;20038;-80
2022/03/21 04:54:14;;;;;;;95.70;47.08;;;;;;;1.16;87.28;102933.09;4958687;28;20031;-81
2022/03/21 04:56:40;;;;;;;91.15;46.00;;;;;;;1.16;86.79;102930.44;4952249;29;20046;-82
2022/03/21 04:59:05;;;;;;;99.75;48.38;;;;;;;1.17;86.67;102940.16;4954171;28;20019;-82
2022/03/21 05:01:30;;;;;;;92.35;47.30;;;;;;;1.16;86.77;102935.75;4950689;28;20035;-81
2022/03/21 05:03:56;;;;;;;99.35;48.53;;;;;;;1.14;86.85;102938.50;4950913;28;20054;-79
2022/03/21 05:06:21;;;;;;;98.75;46.72;;;;;;;1.12;87.00;102935.03;4950173;28;20141;-80
2022/03/21 05:08:48;;;;;;;101.82;49.60;;;;;;;1.13;87.15;102941.19;4952248;28;20055;-79
2022/03/21 05:11:14;;;;;;;93.55;46.38;;;;;;;1.16;87.38;102943.72;4951632;28;20051;-80
2022/03/21 05:13:39;;;;;;;102.28;48.17;;;;;;;1.13;86.91;102944.72;4952849;29;20135;-80
2022/03/21 05:16:08;;;;;;;104.63;48.38;;;;;;;1.11;86.72;102941.28;4950985;29;20110;-79
2022/03/21 05:18:36;;;;;;;;;;;;;;;1.07;86.84;102940.53;4952314;28;20049;-80
2022/03/21 05:21:02;;;;;;;96.60;46.20;;;;;;;1.07;87.12;102940.53;4952277;28;19922;-79
2022/03/21 05:31:39;;;;;;;106.03;48.47;;;;;;;0.97;87.04;102944.53;4951031;28;20050;-80
2022/03/21 05:36:48;;;;;;;100.43;47.40;;;;;;;0.91;86.71;102955.41;4951759;28;20093;-84
2022/03/21 05:39:13;;;;;;;110.53;48.33;;;;;;;0.90;87.04;102958.16;4950482;29;20031;-79
2022/03/21 05:41:39;;;;;;;102.32;48.90;;;;;;;0.86;86.60;102965.34;4950621;28;20027;-83
2022/03/21 05:44:04;;;;;;;107.97;48.85;;;;;;;0.87;86.87;102959.16;4948885;28;20085;-84
2022/03/21 05:46:30;;;;;;;104.43;48.83;;;;;;;0.82;87.31;102951.38;5030406;28;20026;-85
2022/03/21 05:48:59;;;;;;;100.65;48.78;;;;;;;0.82;87.29;102963.78;5031434;28;20033;-82
2022/03/21 05:51:30;;;;;;;104.05;48.17;;;;;;;0.87;87.60;102960.00;4937199;29;20044;-82
2022/03/21 05:53:57;;;;;;;105.22;50.78;;;;;;;0.92;88.17;102957.13;4950115;28;20019;-80
2022/03/21 05:56:25;;;;;;;105.18;50.67;;;;;;;0.95;87.81;102962.31;4951343;28;20035;-83
2022/03/21 05:58:51;;;;;;;106.55;48.47;;;;;;;0.99;87.89;102958.59;4950278;28;20043;-87
2022/03/21 06:01:21;;;;;;;107.35;49.15;;;;;;;1.09;87.81;102970.50;4952078;28;20042;-83
2022/03/21 06:03:48;;;;;;;111.32;50.22;;;;;;;1.13;87.68;102973.03;4950016;28;20394;-83
2022/03/21 06:06:13;;;;;;;104.15;48.88;;;;;;;1.19;87.61;102970.97;4958258;28;20476;-82
2022/03/21 06:08:39;;;;;;;103.90;48.45;;;;;;;1.26;87.36;102975.09;4951987;28;20126;-84
2022/03/21 06:11:04;;;;;;;106.55;48.78;;;;;;;1.31;87.26;102974.84;4958149;28;20047;-84
2022/03/21 06:13:33;;;;;;;102.10;49.80;;;;;;;1.35;87.37;102984.41;4954791;28;20028;-82
2022/03/21 06:16:08;;;;;;;110.47;48.97;;;;;;;1.43;88.11;102981.41;4960790;28;20050;-84
2022/03/21 06:18:35;;;;;;;107.10;49.00;;;;;;;1.50;87.69;102977.53;4942166;29;20042;-87
2022/03/21 06:21:02;;;;;;;93.50;47.10;;;;;;;1.59;87.87;102987.72;4953773;28;20020;-84
2022/03/21 06:23:28;;;;;;;102.47;49.13;;;;;;;1.67;87.39;102988.22;4948092;29;20085;-83
2022/03/21 06:25:54;;;;;;;104.93;52.28;;;;;;;1.75;87.25;102985.22;4953935;29;20441;-83
2022/03/21 06:28:23;;;;;;;110.80;50.05;;;;;;;1.87;87.05;102989.97;4958725;28;20028;-80
2022/03/21 06:30:53;;;;;;;118.90;49.58;;;;;;;2.08;86.56;102989.84;4955773;28;20126;-82
2022/03/21 06:33:20;;;;;;;97.80;50.05;;;;;;;2.38;86.81;102993.69;4956622;28;20031;-81
2022/03/21 06:35:46;;;;;;;105.82;50.53;;;;;;;2.86;87.19;102993.94;4955015;29;20027;-82
2022/03/21 06:38:11;;;;;;;106.55;48.28;;;;;;;3.34;86.39;103010.06;4951607;28;20694;-82
2022/03/21 06:40:38;;;;;;;102.47;48.80;;;;;;;3.76;84.02;103004.22;4948306;28;20069;-79
2022/03/21 06:43:03;;;;;;;98.28;46.00;;;;;;;4.30;81.01;103006.56;4953132;28;20030;-81
2022/03/21 06:45:29;;;;;;;97.78;46.05;;;;;;;4.61;78.39;103003.00;4953398;28;20113;-82
2022/03/21 06:47:54;;;;;;;89.30;46.10;;;;;;;4.90;76.22;103008.38;4948928;28;20024;-82
2022/03/21 06:50:20;;;;;;;84.88;44.08;;;;;;;5.45;75.49;103002.34;4953565;28;20467;-80
2022/03/21 06:52:45;;;;;;;84.57;44.47;;;;;;;6.23;73.61;103012.56;4956962;28;20042;-81
2022/03/21 06:55:12;;;;;;;85.50;43.13;;;;;;;6.81;71.04;103012.22;4959308;28;20538;-81
2022/03/21 06:57:38;;;;;;;77.25;42.05;;;;;;;7.32;69.42;103018.59;4942884;28;20077;-83
2022/03/21 07:00:05;;;;;;;83.22;42.42;;;;;;;7.47;66.48;103017.50;4948080;28;20043;-83
2022/03/21 07:02:31;;;;;;;78.25;40.78;;;;;;;7.78;66.29;103020.72;4955762;28;20046;-82
2022/03/21 07:04:57;;;;;;;76.60;41.60;;;;;;;8.00;63.69;103025.38;4949443;29;20031;-82
2022/03/21 07:07:23;;;;;;;76.00;41.85;;;;;;;7.77;62.20;103027.03;4947143;28;20189;-82
2022/03/21 07:09:49;;;;;;;81.38;42.53;;;;;;;7.90;62.83;103030.56;4951268;29;20082;-82
2022/03/21 07:12:14;;;;;;;75.65;40.80;;;;;;;7.79;62.06;103033.13;4948812;28;20493;-82
2022/03/21 07:14:39;;;;;;;71.03;41.53;;;;;;;7.91;62.19;103037.63;4949248;28;20109;-83
2022/03/21 07:17:05;;;;;;;70.95;41.38;;;;;;;8.51;61.31;103034.13;4951272;28;20023;-82
2022/03/21 07:19:30;;;;;;;73.35;40.65;;;;;;;8.84;59.72;103032.53;4949946;29;20739;-81
2022/03/21 07:21:55;;;;;;;76.00;41.10;;;;;;;9.24;59.48;103037.50;4950088;28;20039;-81
2022/03/21 07:24:21;;;;;;;71.03;38.50;;;;;;;9.16;57.31;103032.75;4950228;29;20031;-82
2022/03/21 07:26:46;;;;;;;64.22;38.83;;;;;;;9.70;57.37;103033.06;4950464;28;20083;-82
2022/03/21 07:29:12;;;;;;;58.88;37.05;;;;;;;10.33;56.57;103034.22;4954780;28;20037;-82
2022/03/21 07:31:38;;;;;;;64.20;38.53;;;;;;;10.48;53.37;103040.19;4950309;29;20023;-82
2022/03/21 07:34:04;;;;;;;63.35;39.55;;;;;;;11.48;50.66;103039.75;4948498;28;20027;-82
2022/03/21 07:36:29;;;;;;;56.63;35.97;;;;;;;11.21;50.40;103044.69;4944735;28;20034;-77
2022/03/21 07:38:57;;;;;;;63.97;36.85;;;;;;;11.49;49.34;103045.00;4952515;28;20087;-79
2022/03/21 07:41:26;;;;;;;57.58;38.03;;;;;;;11.02;49.62;103039.19;4951303;28;20043;-80
2022/03/21 07:43:57;;;;;;;59.88;36.90;;;;;;;11.13;49.94;103044.50;4954159;28;20023;-81
2022/03/21 07:49:06;;;;;;;54.30;35.22;;;;;;;11.59;48.48;103050.47;4957404;28;20073;-79
2022/03/21 07:51:32;;;;;;;61.15;35.65;;;;;;;11.99;47.91;103049.66;4962542;29;20051;-81
2022/03/21 07:53:57;;;;;;;55.92;35.03;;;;;;;12.18;47.20;103040.75;4964293;28;20114;-83
2022/03/21 07:56:23;;;;;;;60.08;34.35;;;;;;;11.96;46.78;103048.09;4964011;28;20031;-82
2022/03/21 07:58:48;;;;;;;57.03;35.40;;;;;;;12.42;46.31;103049.31;5002255;28;20021;-82
2022/03/21 08:01:14;;;;;;;56.42;33.78;;;;;;;12.52;45.66;103047.47;4969430;28;20034;-82
2022/03/21 08:03:39;;;;;;;55.55;34.60;;;;;;;12.75;45.68;103049.91;4975905;28;20091;-78
2022/03/21 08:06:08;;;;;;;55.60;34.88;;;;;;;13.48;44.06;103041.28;5022167;28;20027;-83
2022/03/21 08:08:34;;;;;;;56.20;32.75;;;;;;;13.58;42.88;103042.94;4956091;28;20058;-84
2022/03/21 08:10:59;;;;;;;51.33;33.53;;;;;;;13.92;42.64;103052.34;4958169;28;20024;-82
2022/03/21 08:13:26;;;;;;;53.03;34.22;;;;;;;14.56;41.86;103047.84;4963146;29;20066;-80
2022/03/21 08:15:51;;;;;;;57.67;33.72;;;;;;;15.21;39.25;103052.97;4960407;29;20027;-80
2022/03/21 08:18:17;;;;;;;55.22;32.92;;;;;;;14.91;39.52;103063.28;4950125;28;20037;-78
2022/03/21 08:20:43;;;;;;;53.53;33.67;;;;;;;14.30;40.13;103059.44;4945514;29;20047;-80
2022/03/21 08:23:13;;;;;;;53.72;31.38;;;;;;;14.32;40.04;103054.69;4933057;28;20035;-80
2022/03/21 08:25:41;;;;;;;51.85;32.25;;;;;;;14.87;38.76;103061.88;4944058;29;20042;-79
2022/03/21 08:28:06;;;;;;;;;;;;;;;14.75;39.73;103058.56;4951089;28;20035;-79
2022/03/21 08:30:35;;;;;;;53.30;32.75;;;;;;;14.48;40.29;103051.28;4951411;28;19918;-79
2022/03/21 08:33:01;;;;;;;55.92;32.85;;;;;;;15.39;39.67;103063.78;4951873;28;20471;-83
2022/03/21 08:35:27;;;;;;;50.65;32.22;;;;;;;16.28;37.96;103063.41;4952324;28;20027;-84
2022/03/21 08:37:52;;;;;;;51.45;32.08;;;;;;;16.07;37.63;103060.28;4951969;28;20038;-84
2022/03/21 08:40:17;;;;;;;44.60;30.35;;;;;;;16.58;34.86;103067.34;4952206;29;20032;-81
2022/03/21 08:42:43;;;;;;;53.95;31.75;;;;;;;16.46;36.46;103066.00;4959704;28;20031;-80
2022/03/21 08:45:09;;;;;;;47.45;31.73;;;;;;;17.56;34.78;103058.31;4953510;28;20054;-80
2022/03/21 08:47:35;;;;;;;54.55;31.70;;;;;;;17.65;33.64;103064.63;4958146;28;20035;-79
2022/03/21 08:50:00;;;;;;;47.05;30.33;;;;;;;16.86;34.64;103059.78;4954325;28;20070;-80
2022/03/21 08:52:26;;;;;;;48.83;30.40;;;;;;;16.32;35.47;103059.31;4952431;28;20080;-83
2022/03/21 08:54:51;;;;;;;45.88;29.25;;;;;;;16.64;33.87;103060.41;4953680;29;20122;-81
2022/03/21 08:57:17;;;;;;;44.67;28.48;;;;;;;16.12;34.35;103057.91;4958628;28;20535;-83
2022/03/21 08:59:44;;;;;;;49.40;29.80;;;;;;;16.57;33.89;103056.66;4971868;28;20395;-79
2022/03/21 09:02:09;;;;;;;45.38;29.10;;;;;;;18.03;32.58;103060.22;4952908;28;20023;-79
2022/03/21 09:04:35;;;;;;;50.15;29.65;;;;;;;18.23;31.95;103063.38;4949449;29;20050;-80
2022/03/21 09:07:01;;;;;;;42.75;28.25;;;;;;;19.28;30.53;103069.09;4955687;28;20166;-82
2022/03/21 09:09:26;;;;;;;44.67;29.67;;;;;;;18.71;30.98;103063.25;4970286;28;20157;-83
2022/03/21 09:11:52;;;;;;;45.40;29.73;;;;;;;18.19;30.78;103064.75;4968731;28;20126;-81
2022/03/21 09:14:17;;;;;;;46.88;30.42;;;;;;;19.09;30.84;103066.88;4976927;28;20099;-81
2022/03/21 09:16:43;;;;;;;49.35;29.98;;;;;;;19.29;28.83;103062.56;4991915;28;20114;-81
2022/03/21 09:19:08;;;;;;;51.47;30.50;;;;;;;17.68;31.75;103056.09;4959384;28;20051;-84
2022/03/21 09:21:34;;;;;;;48.00;30.52;;;;;;;17.91;32.25;103056.22;4957205;28;20044;-79
2022/03/21 09:24:00;;;;;;;53.83;32.00;;;;;;;18.36;30.77;103065.53;4958161;28;20042;-81
2022/03/21 09:26:25;;;;;;;52.88;32.00;;;;;;;18.84;31.52;103058.03;4931141;29;20486;-82
2022/03/21 09:28:59;;;;;;;49.95;30.20;;;;;;;18.82;29.87;103049.19;4949399;29;20042;-82
2022/03/21 09:31:25;;;;;;;45.42;27.73;;;;;;;18.32;29.99;103058.72;4973509;28;20031;-82
2022/03/21 09:33:50;;;;;;;47.78;29.50;;;;;;;16.42;32.38;103059.19;4952994;28;20054;-84
2022/03/21 09:36:16;;;;;;;53.90;28.65;;;;;;;16.82;31.85;103050.25;4956898;29;20027;-83
2022/03/21 09:38:41;;;;;;;49.00;28.60;;;;;;;17.28;30.67;103053.28;4955936;28;20031;-83
2022/03/21 09:41:12;;;;;;;46.30;28.05;;;;;;;16.06;32.39;103055.84;4999348;28;20044;-84
2022/03/21 09:43:39;;;;;;;48.65;27.30;;;;;;;15.36;33.91;103056.81;4958116;28;20031;-84
2022/03/21 09:46:07;;;;;;;48.38;27.75;;;;;;;14.96;34.57;103052.81;4950397;28;20050;-83
2022/03/21 09:48:33;;;;;;;44.83;26.48;;;;;;;14.93;34.58;103056.69;4954522;28;20039;-84
2022/03/21 09:51:03;;;;;;;52.63;28.43;;;;;;;14.73;34.98;103048.88;4953831;28;20069;-83
2022/03/21 09:53:29;;;;;;;49.83;26.83;;;;;;;14.77;34.80;103050.25;4951647;28;20059;-83
2022/03/21 09:55:54;;;;;;;50.08;27.50;;;;;;;14.51;34.97;103045.59;4946906;28;20466;-81
2022/03/21 09:58:20;;;;;;;49.05;26.00;;;;;;;15.14;34.41;103056.34;4971960;28;20027;-83
2022/03/21 10:00:47;;;;;;;46.95;26.90;;;;;;;15.44;34.08;103048.72;4950664;28;20115;-82
2022/03/21 10:03:12;;;;;;;48.28;25.95;;;;;;;16.27;33.24;103047.25;4957878;29;20032;-83
2022/03/21 10:05:40;;;;;;;48.90;26.30;;;;;;;16.14;33.23;103050.44;4953745;28;20116;-84
2022/03/21 10:08:20;;;;;;;;;;;;;;;16.15;32.53;103047.56;4956051;28;20047;-84
2022/03/21 10:11:04;;;;;;;45.72;25.60;;;;;;;16.39;33.39;103054.94;4952723;28;19985;-83
2022/03/21 10:13:39;;;;;;;49.40;24.92;;;;;;;16.77;32.38;103047.22;4952045;28;20031;-85
2022/03/21 10:16:14;;;;;;;50.58;25.48;;;;;;;16.62;32.28;103040.72;4956061;29;20046;-85
2022/03/21 10:18:56;;;;;;;44.13;25.25;;;;;;;17.32;31.46;103045.63;4954767;29;20037;-84
2022/03/21 10:21:25;;;;;;;49.15;25.67;;;;;;;17.14;31.59;103042.25;4958048;29;20038;-85
2022/03/21 10:23:57;;;;;;;42.58;24.10;;;;;;;16.36;31.68;103038.97;4952705;29;20479;-84
2022/03/21 10:26:32;;;;;;;47.17;24.27;;;;;;;16.08;32.15;103040.25;4952289;29;20093;-84
2022/03/21 10:29:00;;;;;;;42.45;20.83;;;;;;;14.90;32.72;103050.69;4953156;28;20035;-83
2022/03/21 10:31:40;;;;;;;45.70;23.25;;;;;;;14.49;33.72;103044.88;4951025;28;20023;-86
2022/03/21 10:34:15;;;;;;;41.58;22.98;;;;;;;14.77;34.77;103040.28;4955017;28;20043;-81
2022/03/21 10:37:06;;;;;;;34.60;19.85;;;;;;;14.77;32.65;103051.13;4958046;28;20035;-82
2022/03/21 10:39:34;;;;;;;38.15;19.55;;;;;;;15.62;32.32;103039.69;4947818;29;20031;-82
2022/03/21 10:42:02;;;;;;;36.40;18.10;;;;;;;15.61;29.86;103043.41;4948623;29;20042;-83
2022/03/21 10:44:28;;;;;;;35.45;19.70;;;;;;;15.67;31.46;103042.75;4946551;28;20035;-81
2022/03/21 10:46:56;;;;;;;40.30;21.25;;;;;;;16.02;32.28;103037.16;4949558;28;20050;-81
2022/03/21 10:49:33;;;;;;;43.20;20.58;;;;;;;15.98;31.59;103043.94;4947498;29;20070;-81
2022/03/21 10:51:59;;;;;;;36.60;19.77;;;;;;;15.48;31.73;103044.69;4942094;28;20027;-80
2022/03/21 10:54:39;;;;;;;40.15;20.50;;;;;;;15.48;32.70;103039.28;4952562;28;20070;-81
2022/03/21 10:57:07;;;;;;;33.20;16.25;;;;;;;15.58;29.89;103033.72;4950445;28;20019;-80
2022/03/21 10:59:32;;;;;;;33.42;16.98;;;;;;;15.84;29.40;103030.13;4952135;29;20031;-81
2022/03/21 11:02:11;;;;;;;36.92;16.73;;;;;;;15.68;29.86;103039.88;4955147;28;20448;-80
2022/03/21 11:04:37;;;;;;;43.92;17.90;;;;;;;15.61;30.18;103033.38;4951227;28;20039;-81
2022/03/21 11:07:04;;;;;;;41.08;16.90;;;;;;;15.34;31.32;103029.84;4955173;28;20046;-81
2022/03/21 11:09:29;;;;;;;35.17;17.23;;;;;;;14.97;30.59;103032.81;4957351;28;20050;-83
2022/03/21 11:11:55;;;;;;;34.90;17.40;;;;;;;15.68;30.58;103033.59;4964664;29;20286;-83
2022/03/21 11:14:23;;;;;;;28.45;16.67;;;;;;;15.72;30.82;103032.31;4968871;28;20081;-83
2022/03/21 11:16:49;;;;;;;;;;;;;;;16.79;28.62;103023.41;4956343;28;20431;-85
2022/03/21 11:19:14;;;;;;;34.40;17.60;;;;;;;17.44;27.50;103017.03;4954582;29;19937;-84
2022/03/21 11:21:41;;;;;;;30.00;16.30;;;;;;;18.07;26.61;103022.59;4975855;28;20426;-84
2022/03/21 11:24:09;;;;;;;31.38;16.77;;;;;;;18.33;25.81;103027.72;4956967;28;20118;-83
2022/03/21 11:26:53;;;;;;;30.60;17.27;;;;;;;17.92;26.92;103019.75;4957754;29;20024;-84
2022/03/21 11:29:21;;;;;;;31.58;15.05;;;;;;;17.95;25.84;103020.25;5013549;28;20512;-84
2022/03/21 11:32:08;;;;;;;34.72;17.30;;;;;;;17.89;27.26;103014.69;4964798;28;20419;-84